Portada
METAR-TAF:

METAR-TAF

Aeropuertos :

Aeropuerto Internacional de Nadi

Nadi, Fiyi

latitud: 17-45S, longitud: 177-27E, altitud: 13 m

Observación

El informe se hizo hace 49 minutos, a las 19:00 UTC
Viento 3 kt del este
Temperatura 23°C
Humedad 94%
Presión 1013 hPa
Visibilidad 10 km o más
Escasas nubes a una altura de 3000 ft
Nubes dispersas a una altura de 5000 ft

METAR: NFFN 211900Z 08003KT 9999 FEW030 SCT050 23/22 Q1013 NOSIG

Hora: 07:49 (19:49 UTC)

Pronóstico

El informe se hizo hace 2 horas y 43 minutos, a las 17:06 UTC
Pronóstico válido del 21 a las 18 UTC al 22 a las 18 UTC
Viento 5 kt del sur-sureste
Visibilidad 10 km o más
Escasas nubes a una altura de 3000 ft
Evolucionando progresivamente
del 21 a las 23 UTC al 22 a las 01 UTC
Viento 10 kt del oeste
Evolucionando progresivamente
del 22 a las 05 UTC al 22 a las 07 UTC
Viento 5 kt del sur-sureste

TAF: NFFN 211706Z 2118/2218 16005KT 9999 FEW030 BECMG 2123/2201 26010KT BECMG 2205/2207 16005KT

Observaciones y pronósticos meteorológicos de más de 4000 aeropuertos (mensajes METAR y TAF).

Los puntos amarillos y rojos representan las estaciones disponibles.

Ponga el ratón en el punto deseado para ver el nombre de la estación.

Haga clic para ver las observaciones y los pronósticos meteorológicos.

Para cambiar el mapa : haga clic en los botones verdes con una cruz de color negro para hacer un zoom, en el botón verde con un guión para alejar o en las flechas verdes para mapas adyacentes.


METAR-TAF: